sensor_id;sensor_type;location;lat;lon;timestamp;P1;P4;P2;P0;N10;N4;N25;N1;N05;TS
79749;SPS30;69233;51.968;5.658;2023-05-29T00:01:21;5.2;4.9;4.5;3.7;;;;5.0;10.0;
79749;SPS30;69233;51.968;5.658;2023-05-29T00:03:51;4.7;4.5;4.1;3.4;;;;5.0;10.0;
79749;SPS30;69233;51.968;5.658;2023-05-29T00:06:21;5.6;5.3;4.7;3.8;;;;5.0;10.0;
79749;SPS30;69233;51.968;5.658;2023-05-29T00:08:51;4.8;4.5;4.1;3.3;;;;5.0;10.0;
79749;SPS30;69233;51.968;5.658;2023-05-29T00:11:20;5.8;5.5;4.8;3.8;;;;6.0;9.0;
79749;SPS30;69233;51.968;5.658;2023-05-29T00:13:50;6.1;5.8;5.1;4.0;;;;6.0;9.0;
79749;SPS30;69233;51.968;5.658;2023-05-29T00:16:19;5.2;5.0;4.5;3.7;;;;6.0;10.0;
79749;SPS30;69233;51.968;5.658;2023-05-29T00:18:50;5.5;5.2;4.5;3.5;;;;6.0;10.0;
79749;SPS30;69233;51.968;5.658;2023-05-29T00:21:21;6.6;6.2;5.2;3.9;;;;6.0;9.0;
79749;SPS30;69233;51.968;5.658;2023-05-29T00:23:50;6.6;6.2;5.3;4.1;;;;6.0;9.0;
79749;SPS30;69233;51.968;5.658;2023-05-29T00:26:20;5.3;5.0;4.3;3.3;;;;6.0;9.0;
79749;SPS30;69233;51.968;5.658;2023-05-29T00:28:49;6.6;6.1;5.2;4.0;;;;6.0;9.0;
79749;SPS30;69233;51.968;5.658;2023-05-29T00:31:19;5.3;5.0;4.3;3.3;;;;6.0;9.0;
79749;SPS30;69233;51.968;5.658;2023-05-29T00:33:48;5.0;4.7;4.0;3.1;;;;6.0;10.0;
79749;SPS30;69233;51.968;5.658;2023-05-29T00:36:18;4.9;4.6;4.0;3.0;;;;6.0;10.0;
79749;SPS30;69233;51.968;5.658;2023-05-29T00:38:48;5.8;5.5;4.7;3.6;;;;6.0;9.0;
79749;SPS30;69233;51.968;5.658;2023-05-29T00:41:18;5.0;4.7;4.1;3.2;;;;6.0;9.0;
79749;SPS30;69233;51.968;5.658;2023-05-29T00:43:47;6.0;5.7;4.9;3.8;;;;6.0;9.0;
79749;SPS30;69233;51.968;5.658;2023-05-29T00:46:17;5.0;4.7;4.0;3.1;;;;7.0;10.0;
79749;SPS30;69233;51.968;5.658;2023-05-29T00:48:47;5.6;5.3;4.6;3.6;;;;7.0;11.0;
79749;SPS30;69233;51.968;5.658;2023-05-29T00:51:18;5.9;5.6;5.0;4.0;;;;7.0;11.0;
79749;SPS30;69233;51.968;5.658;2023-05-29T00:53:48;6.1;5.7;5.0;3.8;;;;7.0;11.0;
79749;SPS30;69233;51.968;5.658;2023-05-29T00:56:21;5.3;5.0;4.3;3.3;;;;7.0;12.0;
79749;SPS30;69233;51.968;5.658;2023-05-29T00:58:51;5.5;5.2;4.5;3.5;;;;7.0;12.0;
79749;SPS30;69233;51.968;5.658;2023-05-29T01:01:22;5.7;5.3;4.6;3.5;;;;7.0;13.0;
79749;SPS30;69233;51.968;5.658;2023-05-29T01:03:51;5.9;5.5;4.6;3.3;;;;7.0;13.0;
79749;SPS30;69233;51.968;5.658;2023-05-29T01:06:26;5.4;5.1;4.3;3.3;;;;7.0;13.0;
79749;SPS30;69233;51.968;5.658;2023-05-29T01:08:57;5.9;5.5;4.6;3.4;;;;7.0;13.0;
79749;SPS30;69233;51.968;5.658;2023-05-29T01:11:29;6.1;5.6;4.6;3.3;;;;7.0;13.0;
79749;SPS30;69233;51.968;5.658;2023-05-29T01:14:06;6.6;6.1;4.9;3.3;;;;7.0;13.0;
79749;SPS30;69233;51.968;5.658;2023-05-29T01:16:42;5.9;5.4;4.4;3.1;;;;7.0;12.0;
79749;SPS30;69233;51.968;5.658;2023-05-29T01:19:25;5.6;5.2;4.3;3.1;;;;7.0;12.0;
79749;SPS30;69233;51.968;5.658;2023-05-29T01:22:08;6.3;5.9;4.9;3.6;;;;7.0;13.0;
79749;SPS30;69233;51.968;5.658;2023-05-29T01:24:49;5.4;5.0;4.2;3.0;;;;7.0;14.0;
79749;SPS30;69233;51.968;5.658;2023-05-29T01:27:24;4.7;4.4;3.7;2.8;;;;7.0;15.0;
79749;SPS30;69233;51.968;5.658;2023-05-29T01:29:57;5.7;5.3;4.5;3.3;;;;7.0;16.0;
79749;SPS30;69233;51.968;5.658;2023-05-29T01:32:31;4.6;4.3;3.6;2.6;;;;7.0;17.0;
79749;SPS30;69233;51.968;5.658;2023-05-29T01:35:01;5.2;4.9;4.0;2.9;;;;7.0;18.0;
79749;SPS30;69233;51.968;5.658;2023-05-29T01:37:31;5.5;5.1;4.2;3.0;;;;7.0;19.0;
79749;SPS30;69233;51.968;5.658;2023-05-29T01:40:00;5.7;5.3;4.4;3.1;;;;7.0;22.0;
79749;SPS30;69233;51.968;5.658;2023-05-29T01:42:32;6.0;5.5;4.5;3.1;;;;7.0;23.0;
79749;SPS30;69233;51.968;5.658;2023-05-29T01:45:02;6.1;5.6;4.6;3.3;;;;7.0;23.0;
79749;SPS30;69233;51.968;5.658;2023-05-29T01:47:35;6.9;6.3;5.2;3.6;;;;7.0;24.0;
79749;SPS30;69233;51.968;5.658;2023-05-29T01:50:05;5.7;5.3;4.4;3.2;;;;7.0;23.0;
79749;SPS30;69233;51.968;5.658;2023-05-29T01:52:37;6.2;5.8;4.8;3.5;;;;7.0;22.0;
79749;SPS30;69233;51.968;5.658;2023-05-29T01:55:08;5.7;5.3;4.4;3.2;;;;7.0;22.0;
79749;SPS30;69233;51.968;5.658;2023-05-29T01:57:38;5.9;5.4;4.5;3.1;;;;7.0;22.0;
79749;SPS30;69233;51.968;5.658;2023-05-29T02:00:09;6.1;5.6;4.6;3.2;;;;7.0;22.0;
79749;SPS30;69233;51.968;5.658;2023-05-29T02:02:39;6.6;6.1;5.1;3.6;;;;7.0;21.0;
79749;SPS30;69233;51.968;5.658;2023-05-29T02:05:09;5.1;4.8;3.9;2.7;;;;7.0;21.0;
79749;SPS30;69233;51.968;5.658;2023-05-29T02:07:38;6.4;5.9;4.8;3.3;;;;7.0;22.0;
79749;SPS30;69233;51.968;5.658;2023-05-29T02:10:10;6.2;5.7;4.6;3.2;;;;7.0;22.0;
79749;SPS30;69233;51.968;5.658;2023-05-29T02:12:40;5.8;5.3;4.3;2.9;;;;7.0;21.0;
79749;SPS30;69233;51.968;5.658;2023-05-29T02:15:11;4.7;4.4;3.6;2.6;;;;7.0;20.0;
79749;SPS30;69233;51.968;5.658;2023-05-29T02:17:41;6.5;6.0;5.0;3.7;;;;7.0;19.0;
79749;SPS30;69233;51.968;5.658;2023-05-29T02:20:11;5.6;5.1;4.2;3.0;;;;7.0;18.0;
79749;SPS30;69233;51.968;5.658;2023-05-29T02:22:41;5.0;4.6;3.8;2.8;;;;7.0;18.0;
79749;SPS30;69233;51.968;5.658;2023-05-29T02:25:10;6.3;5.8;4.7;3.3;;;;7.0;18.0;
79749;SPS30;69233;51.968;5.658;2023-05-29T02:27:40;5.4;5.0;4.1;2.9;;;;7.0;19.0;
79749;SPS30;69233;51.968;5.658;2023-05-29T02:30:11;5.6;5.2;4.3;3.0;;;;7.0;21.0;
79749;SPS30;69233;51.968;5.658;2023-05-29T02:32:42;5.5;5.1;4.3;3.0;;;;7.0;20.0;
79749;SPS30;69233;51.968;5.658;2023-05-29T02:35:12;5.6;5.2;4.3;3.1;;;;7.0;21.0;
79749;SPS30;69233;51.968;5.658;2023-05-29T02:37:44;7.0;6.5;5.4;3.9;;;;7.0;21.0;
79749;SPS30;69233;51.968;5.658;2023-05-29T02:40:13;5.6;5.2;4.4;3.2;;;;7.0;21.0;
79749;SPS30;69233;51.968;5.658;2023-05-29T02:42:43;5.9;5.5;4.5;3.2;;;;7.0;21.0;
79749;SPS30;69233;51.968;5.658;2023-05-29T02:45:14;5.8;5.4;4.4;3.1;;;;7.0;21.0;
79749;SPS30;69233;51.968;5.658;2023-05-29T02:47:43;5.9;5.4;4.5;3.2;;;;7.0;21.0;
79749;SPS30;69233;51.968;5.658;2023-05-29T02:50:13;6.4;5.9;4.9;3.4;;;;7.0;21.0;
79749;SPS30;69233;51.968;5.658;2023-05-29T02:52:43;5.7;5.2;4.2;2.9;;;;7.0;21.0;
79749;SPS30;69233;51.968;5.658;2023-05-29T02:55:12;5.8;5.3;4.3;2.9;;;;7.0;21.0;
79749;SPS30;69233;51.968;5.658;2023-05-29T02:57:44;6.4;5.9;4.8;3.3;;;;7.0;22.0;
79749;SPS30;69233;51.968;5.658;2023-05-29T03:00:16;6.5;5.9;4.9;3.4;;;;7.0;22.0;
79749;SPS30;69233;51.968;5.658;2023-05-29T03:02:47;5.9;5.4;4.5;3.2;;;;7.0;24.0;
79749;SPS30;69233;51.968;5.658;2023-05-29T03:05:17;5.1;4.7;3.9;2.8;;;;7.0;25.0;
79749;SPS30;69233;51.968;5.658;2023-05-29T03:07:47;5.6;5.2;4.3;3.1;;;;7.0;26.0;
79749;SPS30;69233;51.968;5.658;2023-05-29T03:10:18;5.1;4.7;3.9;2.8;;;;7.0;27.0;
79749;SPS30;69233;51.968;5.658;2023-05-29T03:12:48;6.1;5.6;4.6;3.2;;;;7.0;28.0;
79749;SPS30;69233;51.968;5.658;2023-05-29T03:15:19;6.4;5.8;4.8;3.3;;;;7.0;28.0;
79749;SPS30;69233;51.968;5.658;2023-05-29T03:17:49;5.9;5.5;4.6;3.3;;;;7.0;28.0;
79749;SPS30;69233;51.968;5.658;2023-05-29T03:20:19;5.8;5.4;4.5;3.4;;;;7.0;27.0;
79749;SPS30;69233;51.968;5.658;2023-05-29T03:22:48;5.8;5.4;4.6;3.4;;;;7.0;26.0;
79749;SPS30;69233;51.968;5.658;2023-05-29T03:25:18;5.1;4.8;4.0;2.9;;;;7.0;26.0;
79749;SPS30;69233;51.968;5.658;2023-05-29T03:27:48;5.6;5.2;4.4;3.2;;;;7.0;26.0;
79749;SPS30;69233;51.968;5.658;2023-05-29T03:30:18;5.6;5.2;4.4;3.2;;;;7.0;26.0;
79749;SPS30;69233;51.968;5.658;2023-05-29T03:32:47;4.8;4.5;3.8;2.7;;;;7.0;25.0;
79749;SPS30;69233;51.968;5.658;2023-05-29T03:35:17;5.2;4.9;4.1;2.9;;;;7.0;24.0;
79749;SPS30;69233;51.968;5.658;2023-05-29T03:37:46;5.1;4.7;4.0;3.0;;;;7.0;24.0;
79749;SPS30;69233;51.968;5.658;2023-05-29T03:40:16;5.3;4.9;4.0;2.9;;;;7.0;25.0;
79749;SPS30;69233;51.968;5.658;2023-05-29T03:42:46;5.8;5.4;4.4;3.1;;;;7.0;26.0;
79749;SPS30;69233;51.968;5.658;2023-05-29T03:45:15;5.8;5.3;4.4;3.1;;;;7.0;28.0;
79749;SPS30;69233;51.968;5.658;2023-05-29T03:47:45;5.6;5.2;4.3;3.1;;;;7.0;27.0;
79749;SPS30;69233;51.968;5.658;2023-05-29T03:50:14;5.1;4.7;3.9;2.7;;;;7.0;26.0;
79749;SPS30;69233;51.968;5.658;2023-05-29T03:52:44;4.9;4.6;3.8;2.7;;;;7.0;26.0;
79749;SPS30;69233;51.968;5.658;2023-05-29T03:55:16;5.1;4.7;3.8;2.7;;;;7.0;26.0;
79749;SPS30;69233;51.968;5.658;2023-05-29T03:57:45;5.3;4.9;4.0;2.7;;;;7.0;27.0;
79749;SPS30;69233;51.968;5.658;2023-05-29T04:00:15;4.9;4.6;3.7;2.6;;;;7.0;30.0;
79749;SPS30;69233;51.968;5.658;2023-05-29T04:02:45;4.7;4.4;3.7;2.7;;;;7.0;29.0;
79749;SPS30;69233;51.968;5.658;2023-05-29T04:05:15;5.6;5.1;4.3;3.1;;;;7.0;28.0;
79749;SPS30;69233;51.968;5.658;2023-05-29T04:07:47;6.1;5.6;4.6;3.2;;;;7.0;29.0;
79749;SPS30;69233;51.968;5.658;2023-05-29T04:10:17;6.7;6.1;5.0;3.5;;;;7.0;31.0;
79749;SPS30;69233;51.968;5.658;2023-05-29T04:12:46;6.7;6.2;5.0;3.4;;;;7.0;31.0;
79749;SPS30;69233;51.968;5.658;2023-05-29T04:15:16;5.1;4.6;3.8;2.6;;;;7.0;33.0;
79749;SPS30;69233;51.968;5.658;2023-05-29T04:17:49;5.8;5.3;4.3;3.0;;;;7.0;34.0;
79749;SPS30;69233;51.968;5.658;2023-05-29T04:20:18;6.1;5.6;4.6;3.2;;;;7.0;34.0;
79749;SPS30;69233;51.968;5.658;2023-05-29T04:22:48;6.4;5.9;4.7;3.1;;;;7.0;36.0;
79749;SPS30;69233;51.968;5.658;2023-05-29T04:25:17;6.4;5.8;4.6;3.0;;;;7.0;38.0;
79749;SPS30;69233;51.968;5.658;2023-05-29T04:27:47;6.0;5.4;4.3;2.8;;;;7.0;37.0;
79749;SPS30;69233;51.968;5.658;2023-05-29T04:30:17;6.3;5.7;4.5;2.9;;;;7.0;37.0;
79749;SPS30;69233;51.968;5.658;2023-05-29T04:32:48;6.4;5.8;4.6;3.0;;;;7.0;39.0;
79749;SPS30;69233;51.968;5.658;2023-05-29T04:35:19;6.3;5.7;4.5;2.9;;;;7.0;42.0;
79749;SPS30;69233;51.968;5.658;2023-05-29T04:37:49;6.2;5.6;4.4;2.9;;;;7.0;43.0;
79749;SPS30;69233;51.968;5.658;2023-05-29T04:40:20;6.3;5.7;4.5;2.9;;;;7.0;42.0;
79749;SPS30;69233;51.968;5.658;2023-05-29T04:42:49;6.4;5.8;4.6;2.9;;;;7.0;42.0;
79749;SPS30;69233;51.968;5.658;2023-05-29T04:45:20;5.8;5.3;4.2;2.7;;;;7.0;43.0;
79749;SPS30;69233;51.968;5.658;2023-05-29T04:47:50;6.3;5.7;4.6;3.0;;;;7.0;48.0;
79749;SPS30;69233;51.968;5.658;2023-05-29T04:50:21;5.6;5.1;4.1;2.8;;;;6.0;47.0;
79749;SPS30;69233;51.968;5.658;2023-05-29T04:52:52;6.0;5.5;4.4;2.9;;;;6.0;45.0;
79749;SPS30;69233;51.968;5.658;2023-05-29T04:55:21;4.7;4.3;3.5;2.4;;;;6.0;45.0;
79749;SPS30;69233;51.968;5.658;2023-05-29T04:57:51;5.6;5.2;4.2;2.8;;;;7.0;60.0;
79749;SPS30;69233;51.968;5.658;2023-05-29T05:00:21;5.6;5.2;4.2;2.8;;;;7.0;57.0;
79749;SPS30;69233;51.968;5.658;2023-05-29T05:02:52;4.5;4.2;3.5;2.5;;;;7.0;65.0;
79749;SPS30;69233;51.968;5.658;2023-05-29T05:05:22;6.1;5.6;4.6;3.2;;;;6.0;66.0;
79749;SPS30;69233;51.968;5.658;2023-05-29T05:07:53;6.5;5.9;4.7;3.0;;;;6.0;56.0;
79749;SPS30;69233;51.968;5.658;2023-05-29T05:10:23;5.1;4.7;3.8;2.5;;;;6.0;53.0;
79749;SPS30;69233;51.968;5.658;2023-05-29T05:12:53;5.5;5.1;4.1;2.8;;;;6.0;56.0;
79749;SPS30;69233;51.968;5.658;2023-05-29T05:15:22;6.3;5.7;4.6;3.0;;;;6.0;51.0;
79749;SPS30;69233;51.968;5.658;2023-05-29T05:17:52;6.3;5.7;4.5;2.9;;;;6.0;42.0;
79749;SPS30;69233;51.968;5.658;2023-05-29T05:20:21;6.0;5.4;4.2;2.5;;;;6.0;37.0;
79749;SPS30;69233;51.968;5.658;2023-05-29T05:22:52;7.5;6.8;5.4;3.5;;;;6.0;36.0;
79749;SPS30;69233;51.968;5.658;2023-05-29T05:25:23;5.4;4.9;4.0;2.7;;;;6.0;36.0;
79749;SPS30;69233;51.968;5.658;2023-05-29T05:27:52;5.4;4.9;4.0;2.7;;;;6.0;37.0;
79749;SPS30;69233;51.968;5.658;2023-05-29T05:30:22;5.3;4.8;3.9;2.5;;;;6.0;38.0;
79749;SPS30;69233;51.968;5.658;2023-05-29T05:32:51;5.6;5.1;4.0;2.6;;;;6.0;38.0;
79749;SPS30;69233;51.968;5.658;2023-05-29T05:35:22;6.0;5.5;4.3;2.8;;;;6.0;37.0;
79749;SPS30;69233;51.968;5.658;2023-05-29T05:37:51;8.0;7.2;5.6;3.5;;;;6.0;40.0;
79749;SPS30;69233;51.968;5.658;2023-05-29T05:40:21;6.8;6.2;4.8;3.0;;;;6.0;40.0;
79749;SPS30;69233;51.968;5.658;2023-05-29T05:42:50;5.8;5.3;4.1;2.6;;;;6.0;40.0;
79749;SPS30;69233;51.968;5.658;2023-05-29T05:45:20;5.2;4.8;3.8;2.4;;;;6.0;36.0;
79749;SPS30;69233;51.968;5.658;2023-05-29T05:47:49;4.9;4.5;3.5;2.2;;;;6.0;37.0;
79749;SPS30;69233;51.968;5.658;2023-05-29T05:50:19;5.4;4.9;3.8;2.4;;;;6.0;37.0;
79749;SPS30;69233;51.968;5.658;2023-05-29T05:52:49;5.9;5.4;4.2;2.8;;;;6.0;37.0;
79749;SPS30;69233;51.968;5.658;2023-05-29T05:55:19;5.4;5.0;3.9;2.6;;;;6.0;36.0;
79749;SPS30;69233;51.968;5.658;2023-05-29T05:57:48;5.2;4.8;3.7;2.4;;;;6.0;35.0;
79749;SPS30;69233;51.968;5.658;2023-05-29T06:00:19;5.8;5.3;4.2;2.7;;;;6.0;34.0;
79749;SPS30;69233;51.968;5.658;2023-05-29T06:02:51;7.0;6.4;5.0;3.2;;;;6.0;29.0;
79749;SPS30;69233;51.968;5.658;2023-05-29T06:05:21;5.4;4.9;3.9;2.5;;;;6.0;28.0;
79749;SPS30;69233;51.968;5.658;2023-05-29T06:07:50;5.7;5.3;4.2;2.9;;;;6.0;28.0;
79749;SPS30;69233;51.968;5.658;2023-05-29T06:10:20;5.6;5.1;4.0;2.6;;;;6.0;33.0;
79749;SPS30;69233;51.968;5.658;2023-05-29T06:12:49;5.4;4.9;3.9;2.6;;;;6.0;32.0;
79749;SPS30;69233;51.968;5.658;2023-05-29T06:15:19;5.0;4.5;3.6;2.3;;;;6.0;28.0;
79749;SPS30;69233;51.968;5.658;2023-05-29T06:17:49;4.7;4.3;3.4;2.3;;;;6.0;28.0;
79749;SPS30;69233;51.968;5.658;2023-05-29T06:20:19;5.2;4.8;3.9;2.6;;;;6.0;27.0;
79749;SPS30;69233;51.968;5.658;2023-05-29T06:22:50;4.9;4.5;3.6;2.5;;;;6.0;24.0;
79749;SPS30;69233;51.968;5.658;2023-05-29T06:25:19;6.0;5.5;4.4;3.0;;;;7.0;22.0;
79749;SPS30;69233;51.968;5.658;2023-05-29T06:27:49;4.5;4.1;3.4;2.4;;;;7.0;23.0;
79749;SPS30;69233;51.968;5.658;2023-05-29T06:30:18;4.9;4.5;3.7;2.5;;;;7.0;22.0;
79749;SPS30;69233;51.968;5.658;2023-05-29T06:32:48;3.8;3.5;2.9;2.1;;;;7.0;23.0;
79749;SPS30;69233;51.968;5.658;2023-05-29T06:35:19;4.9;4.5;3.7;2.6;;;;7.0;22.0;
79749;SPS30;69233;51.968;5.658;2023-05-29T06:37:49;4.5;4.2;3.5;2.5;;;;7.0;24.0;
79749;SPS30;69233;51.968;5.658;2023-05-29T06:40:18;4.8;4.4;3.6;2.6;;;;7.0;28.0;
79749;SPS30;69233;51.968;5.658;2023-05-29T06:42:48;4.7;4.3;3.5;2.5;;;;7.0;28.0;
79749;SPS30;69233;51.968;5.658;2023-05-29T06:45:18;4.7;4.4;3.6;2.6;;;;7.0;27.0;
79749;SPS30;69233;51.968;5.658;2023-05-29T06:47:49;6.5;6.0;5.0;3.6;;;;7.0;26.0;
79749;SPS30;69233;51.968;5.658;2023-05-29T06:50:19;5.9;5.5;4.8;3.7;;;;7.0;26.0;
79749;SPS30;69233;51.968;5.658;2023-05-29T06:52:48;5.4;5.1;4.4;3.4;;;;7.0;26.0;
79749;SPS30;69233;51.968;5.658;2023-05-29T06:55:19;4.6;4.4;3.9;3.1;;;;6.0;26.0;
79749;SPS30;69233;51.968;5.658;2023-05-29T06:57:48;4.0;3.7;3.2;2.5;;;;6.0;26.0;
79749;SPS30;69233;51.968;5.658;2023-05-29T07:00:18;4.0;3.8;3.4;2.9;;;;6.0;27.0;
79749;SPS30;69233;51.968;5.658;2023-05-29T07:02:48;8.5;8.1;7.2;5.9;;;;6.0;27.0;
79749;SPS30;69233;51.968;5.658;2023-05-29T07:05:18;7.7;7.4;6.6;5.5;;;;6.0;29.0;
79749;SPS30;69233;51.968;5.658;2023-05-29T07:07:48;4.7;4.5;4.0;3.3;;;;6.0;38.0;
79749;SPS30;69233;51.968;5.658;2023-05-29T07:10:19;5.3;5.0;4.5;3.6;;;;6.0;37.0;
79749;SPS30;69233;51.968;5.658;2023-05-29T07:12:48;3.5;3.4;3.0;2.4;;;;6.0;36.0;
79749;SPS30;69233;51.968;5.658;2023-05-29T07:15:18;4.4;4.2;3.8;3.2;;;;6.0;34.0;
79749;SPS30;69233;51.968;5.658;2023-05-29T07:17:47;3.8;3.6;3.3;2.8;;;;6.0;31.0;
79749;SPS30;69233;51.968;5.658;2023-05-29T07:20:17;4.1;3.9;3.6;3.0;;;;6.0;28.0;
79749;SPS30;69233;51.968;5.658;2023-05-29T07:22:47;3.9;3.7;3.3;2.7;;;;6.0;26.0;
79749;SPS30;69233;51.968;5.658;2023-05-29T07:25:17;4.7;4.4;3.9;3.1;;;;6.0;33.0;
79749;SPS30;69233;51.968;5.658;2023-05-29T07:27:47;4.3;4.1;3.6;2.9;;;;6.0;212.0;
79749;SPS30;69233;51.968;5.658;2023-05-29T07:30:17;4.2;4.0;3.4;2.7;;;;5.0;215.0;
79749;SPS30;69233;51.968;5.658;2023-05-29T07:32:47;5.8;5.4;4.7;3.7;;;;5.0;149.0;
79749;SPS30;69233;51.968;5.658;2023-05-29T07:35:17;3.6;3.4;3.0;2.3;;;;5.0;147.0;
79749;SPS30;69233;51.968;5.658;2023-05-29T07:37:48;4.1;3.9;3.4;2.8;;;;5.0;136.0;
79749;SPS30;69233;51.968;5.658;2023-05-29T07:40:19;3.5;3.4;2.9;2.3;;;;4.0;130.0;
79749;SPS30;69233;51.968;5.658;2023-05-29T07:42:49;4.2;3.9;3.5;2.7;;;;4.0;103.0;
79749;SPS30;69233;51.968;5.658;2023-05-29T07:45:19;4.4;4.2;3.6;2.7;;;;4.0;99.0;
79749;SPS30;69233;51.968;5.658;2023-05-29T07:47:48;5.1;4.8;4.0;3.0;;;;4.0;93.0;
79749;SPS30;69233;51.968;5.658;2023-05-29T07:50:17;4.8;4.4;3.8;2.8;;;;4.0;98.0;
79749;SPS30;69233;51.968;5.658;2023-05-29T07:52:47;4.7;4.4;3.8;2.9;;;;4.0;83.0;
79749;SPS30;69233;51.968;5.658;2023-05-29T07:55:17;4.3;4.1;3.6;2.9;;;;4.0;110.0;
79749;SPS30;69233;51.968;5.658;2023-05-29T07:57:47;5.2;5.0;4.4;3.6;;;;4.0;100.0;
79749;SPS30;69233;51.968;5.658;2023-05-29T08:00:17;4.9;4.7;4.1;3.2;;;;4.0;88.0;
79749;SPS30;69233;51.968;5.658;2023-05-29T08:02:49;5.6;5.3;4.7;3.8;;;;3.0;93.0;
79749;SPS30;69233;51.968;5.658;2023-05-29T08:05:20;4.5;4.3;3.8;3.1;;;;3.0;99.0;
79749;SPS30;69233;51.968;5.658;2023-05-29T08:07:49;3.2;3.0;2.7;2.2;;;;3.0;87.0;
79749;SPS30;69233;51.968;5.658;2023-05-29T08:10:21;4.2;4.0;3.4;2.7;;;;3.0;77.0;
79749;SPS30;69233;51.968;5.658;2023-05-29T08:12:50;6.8;6.5;5.7;4.6;;;;3.0;86.0;
79749;SPS30;69233;51.968;5.658;2023-05-29T08:15:20;5.5;5.2;4.6;3.8;;;;3.0;92.0;
79749;SPS30;69233;51.968;5.658;2023-05-29T08:17:51;4.6;4.4;4.1;3.6;;;;3.0;106.0;
79749;SPS30;69233;51.968;5.658;2023-05-29T08:20:21;3.6;3.5;3.3;2.9;;;;3.0;103.0;
79749;SPS30;69233;51.968;5.658;2023-05-29T08:22:50;2.8;2.7;2.4;2.0;;;;3.0;83.0;
79749;SPS30;69233;51.968;5.658;2023-05-29T08:25:20;8.6;8.3;7.7;6.7;;;;3.0;79.0;
79749;SPS30;69233;51.968;5.658;2023-05-29T08:27:49;3.0;2.9;2.7;2.4;;;;3.0;83.0;
79749;SPS30;69233;51.968;5.658;2023-05-29T08:30:19;4.0;3.9;3.5;2.9;;;;3.0;87.0;
79749;SPS30;69233;51.968;5.658;2023-05-29T08:32:48;5.0;4.8;4.3;3.5;;;;3.0;94.0;
79749;SPS30;69233;51.968;5.658;2023-05-29T08:35:19;4.7;4.5;4.1;3.4;;;;3.0;93.0;
79749;SPS30;69233;51.968;5.658;2023-05-29T08:37:50;4.2;4.0;3.6;2.9;;;;3.0;109.0;
79749;SPS30;69233;51.968;5.658;2023-05-29T08:40:19;3.8;3.7;3.3;2.8;;;;2.0;106.0;
79749;SPS30;69233;51.968;5.658;2023-05-29T08:42:50;3.8;3.6;3.2;2.6;;;;2.0;105.0;
79749;SPS30;69233;51.968;5.658;2023-05-29T08:45:25;3.9;3.7;3.3;2.7;;;;2.0;93.0;
79749;SPS30;69233;51.968;5.658;2023-05-29T08:48:02;3.8;3.6;3.3;2.7;;;;2.0;89.0;
79749;SPS30;69233;51.968;5.658;2023-05-29T08:50:34;3.6;3.4;3.1;2.7;;;;2.0;95.0;
79749;SPS30;69233;51.968;5.658;2023-05-29T08:53:09;4.4;4.2;3.9;3.4;;;;2.0;106.0;
79749;SPS30;69233;51.968;5.658;2023-05-29T08:55:39;3.4;3.2;3.0;2.6;;;;2.0;114.0;
79749;SPS30;69233;51.968;5.658;2023-05-29T08:58:09;3.8;3.7;3.3;2.8;;;;2.0;109.0;
79749;SPS30;69233;51.968;5.658;2023-05-29T09:00:40;3.9;3.8;3.4;2.8;;;;2.0;115.0;
79749;SPS30;69233;51.968;5.658;2023-05-29T09:03:09;3.3;3.2;2.9;2.4;;;;2.0;129.0;
79749;SPS30;69233;51.968;5.658;2023-05-29T09:05:42;4.5;4.3;3.9;3.2;;;;2.0;138.0;
79749;SPS30;69233;51.968;5.658;2023-05-29T09:08:15;3.9;3.7;3.4;2.8;;;;2.0;132.0;
79749;SPS30;69233;51.968;5.658;2023-05-29T09:10:45;3.5;3.4;3.0;2.5;;;;2.0;132.0;
79749;SPS30;69233;51.968;5.658;2023-05-29T09:13:15;4.5;4.3;3.9;3.2;;;;2.0;142.0;
79749;SPS30;69233;51.968;5.658;2023-05-29T09:15:45;4.2;4.0;3.6;3.0;;;;2.0;148.0;
79749;SPS30;69233;51.968;5.658;2023-05-29T09:18:16;3.6;3.4;3.1;2.6;;;;2.0;162.0;
79749;SPS30;69233;51.968;5.658;2023-05-29T09:20:46;3.0;2.8;2.6;2.2;;;;2.0;156.0;
79749;SPS30;69233;51.968;5.658;2023-05-29T09:23:15;3.2;3.1;2.8;2.4;;;;2.0;153.0;
79749;SPS30;69233;51.968;5.658;2023-05-29T09:25:53;3.5;3.4;3.1;2.5;;;;1.0;151.0;
79749;SPS30;69233;51.968;5.658;2023-05-29T09:28:24;5.2;5.0;4.4;3.6;;;;1.0;147.0;
79749;SPS30;69233;51.968;5.658;2023-05-29T09:30:55;3.4;3.3;2.9;2.4;;;;1.0;140.0;
79749;SPS30;69233;51.968;5.658;2023-05-29T09:33:27;4.0;3.8;3.5;2.9;;;;1.0;151.0;
79749;SPS30;69233;51.968;5.658;2023-05-29T09:35:57;3.5;3.4;3.2;2.8;;;;1.0;178.0;
79749;SPS30;69233;51.968;5.658;2023-05-29T09:38:29;2.8;2.7;2.5;2.2;;;;1.0;198.0;
79749;SPS30;69233;51.968;5.658;2023-05-29T09:40:59;3.5;3.4;3.1;2.7;;;;1.0;185.0;
79749;SPS30;69233;51.968;5.658;2023-05-29T09:43:33;3.6;3.4;3.1;2.7;;;;1.0;183.0;
79749;SPS30;69233;51.968;5.658;2023-05-29T09:46:03;3.2;3.1;2.8;2.3;;;;1.0;176.0;
79749;SPS30;69233;51.968;5.658;2023-05-29T09:48:35;3.9;3.7;3.4;2.8;;;;1.0;166.0;
79749;SPS30;69233;51.968;5.658;2023-05-29T09:51:05;3.9;3.7;3.4;2.8;;;;1.0;162.0;
79749;SPS30;69233;51.968;5.658;2023-05-29T09:53:39;2.9;2.8;2.6;2.2;;;;1.0;187.0;
79749;SPS30;69233;51.968;5.658;2023-05-29T09:56:10;3.4;3.2;3.0;2.5;;;;1.0;188.0;
79749;SPS30;69233;51.968;5.658;2023-05-29T09:58:44;3.0;2.9;2.6;2.2;;;;1.0;184.0;
79749;SPS30;69233;51.968;5.658;2023-05-29T10:01:15;3.7;3.6;3.3;2.8;;;;1.0;178.0;
79749;SPS30;69233;51.968;5.658;2023-05-29T10:03:45;3.2;3.1;2.9;2.5;;;;1.0;179.0;
79749;SPS30;69233;51.968;5.658;2023-05-29T10:06:16;3.2;3.1;2.9;2.5;;;;1.0;186.0;
79749;SPS30;69233;51.968;5.658;2023-05-29T10:08:49;3.5;3.4;3.1;2.7;;;;1.0;198.0;
79749;SPS30;69233;51.968;5.658;2023-05-29T10:11:22;4.1;3.9;3.5;2.9;;;;1.0;211.0;
79749;SPS30;69233;51.968;5.658;2023-05-29T10:13:57;3.4;3.3;3.0;2.4;;;;1.0;203.0;
79749;SPS30;69233;51.968;5.658;2023-05-29T10:16:27;2.5;2.4;2.2;1.8;;;;1.0;169.0;
79749;SPS30;69233;51.968;5.658;2023-05-29T10:19:00;4.0;3.9;3.6;3.1;;;;1.0;176.0;
79749;SPS30;69233;51.968;5.658;2023-05-29T10:21:36;3.3;3.2;3.0;2.7;;;;1.0;178.0;
79749;SPS30;69233;51.968;5.658;2023-05-29T10:24:08;4.2;4.1;3.9;3.4;;;;1.0;181.0;
79749;SPS30;69233;51.968;5.658;2023-05-29T10:26:41;3.6;3.5;3.2;2.8;;;;1.0;186.0;
79749;SPS30;69233;51.968;5.658;2023-05-29T10:29:15;3.6;3.5;3.2;2.8;;;;1.0;207.0;
79749;SPS30;69233;51.968;5.658;2023-05-29T10:31:58;3.6;3.5;3.2;2.7;;;;1.0;219.0;
79749;SPS30;69233;51.968;5.658;2023-05-29T10:34:44;3.5;3.4;3.1;2.7;;;;1.0;210.0;
79749;SPS30;69233;51.968;5.658;2023-05-29T10:37:27;4.4;4.2;3.8;3.2;;;;1.0;216.0;
79749;SPS30;69233;51.968;5.658;2023-05-29T10:40:05;4.0;3.8;3.5;2.9;;;;1.0;214.0;
79749;SPS30;69233;51.968;5.658;2023-05-29T10:42:42;3.2;3.1;2.9;2.5;;;;1.0;216.0;
79749;SPS30;69233;51.968;5.658;2023-05-29T10:45:47;2.9;2.8;2.7;2.3;;;;1.0;210.0;
79749;SPS30;69233;51.968;5.658;2023-05-29T10:48:53;3.0;2.9;2.7;2.3;;;;1.0;210.0;
79749;SPS30;69233;51.968;5.658;2023-05-29T10:51:26;3.6;3.4;3.1;2.7;;;;1.0;200.0;
79749;SPS30;69233;51.968;5.658;2023-05-29T10:53:58;3.6;3.5;3.1;2.6;;;;1.0;207.0;
79749;SPS30;69233;51.968;5.658;2023-05-29T10:56:29;3.4;3.3;3.0;2.5;;;;1.0;200.0;
79749;SPS30;69233;51.968;5.658;2023-05-29T10:58:59;3.4;3.3;3.0;2.5;;;;1.0;209.0;
79749;SPS30;69233;51.968;5.658;2023-05-29T11:01:32;3.5;3.3;3.0;2.6;;;;1.0;225.0;
79749;SPS30;69233;51.968;5.658;2023-05-29T11:06:59;3.7;3.5;3.2;2.6;;;;1.0;207.0;
79749;SPS30;69233;51.968;5.658;2023-05-29T11:09:33;4.4;4.2;3.8;3.1;;;;1.0;203.0;
79749;SPS30;69233;51.968;5.658;2023-05-29T11:12:17;3.0;2.9;2.6;2.2;;;;1.0;200.0;
79749;SPS30;69233;51.968;5.658;2023-05-29T11:15:04;4.1;3.9;3.6;3.1;;;;1.0;214.0;
79749;SPS30;69233;51.968;5.658;2023-05-29T11:17:45;3.5;3.4;3.1;2.7;;;;1.0;218.0;
79749;SPS30;69233;51.968;5.658;2023-05-29T11:20:42;3.2;3.1;2.8;2.4;;;;1.0;230.0;
79749;SPS30;69233;51.968;5.658;2023-05-29T11:23:19;3.8;3.7;3.3;2.7;;;;1.0;223.0;
79749;SPS30;69233;51.968;5.658;2023-05-29T11:25:52;3.8;3.6;3.2;2.6;;;;1.0;241.0;
79749;SPS30;69233;51.968;5.658;2023-05-29T11:28:26;3.9;3.7;3.4;2.8;;;;1.0;250.0;
79749;SPS30;69233;51.968;5.658;2023-05-29T11:30:57;3.7;3.5;3.2;2.7;;;;1.0;248.0;
79749;SPS30;69233;51.968;5.658;2023-05-29T11:33:31;3.3;3.2;2.9;2.4;;;;1.0;242.0;
79749;SPS30;69233;51.968;5.658;2023-05-29T11:36:03;3.7;3.5;3.2;2.7;;;;1.0;229.0;
79749;SPS30;69233;51.968;5.658;2023-05-29T11:41:05;3.2;3.1;2.9;2.5;;;;1.0;258.0;
79749;SPS30;69233;51.968;5.658;2023-05-29T11:43:35;3.6;3.5;3.2;2.7;;;;1.0;237.0;
79749;SPS30;69233;51.968;5.658;2023-05-29T11:46:15;3.1;3.0;2.7;2.3;;;;1.0;225.0;
79749;SPS30;69233;51.968;5.658;2023-05-29T11:48:46;3.3;3.2;2.9;2.5;;;;1.0;203.0;
79749;SPS30;69233;51.968;5.658;2023-05-29T11:51:17;3.9;3.7;3.5;3.0;;;;1.0;216.0;
79749;SPS30;69233;51.968;5.658;2023-05-29T11:53:47;3.8;3.6;3.4;2.9;;;;1.0;217.0;
79749;SPS30;69233;51.968;5.658;2023-05-29T11:56:23;4.3;4.1;3.9;3.4;;;;1.0;209.0;
79749;SPS30;69233;51.968;5.658;2023-05-29T11:58:54;3.5;3.4;3.1;2.7;;;;1.0;222.0;
79749;SPS30;69233;51.968;5.658;2023-05-29T12:01:26;3.9;3.8;3.5;3.1;;;;1.0;200.0;
79749;SPS30;69233;51.968;5.658;2023-05-29T12:03:56;4.2;4.1;3.9;3.6;;;;1.0;216.0;
79749;SPS30;69233;51.968;5.658;2023-05-29T12:06:32;4.2;4.2;4.0;3.7;;;;1.0;198.0;
79749;SPS30;69233;51.968;5.658;2023-05-29T12:09:04;4.5;4.4;4.3;3.9;;;;1.0;207.0;
79749;SPS30;69233;51.968;5.658;2023-05-29T12:11:34;3.5;3.5;3.4;3.2;;;;1.0;208.0;
79749;SPS30;69233;51.968;5.658;2023-05-29T12:14:04;3.9;3.9;3.8;3.5;;;;1.0;216.0;
79749;SPS30;69233;51.968;5.658;2023-05-29T12:16:33;3.7;3.6;3.5;3.2;;;;1.0;210.0;
79749;SPS30;69233;51.968;5.658;2023-05-29T12:19:04;3.8;3.7;3.5;3.2;;;;1.0;206.0;
79749;SPS30;69233;51.968;5.658;2023-05-29T12:21:33;4.3;4.2;4.0;3.5;;;;1.0;223.0;
79749;SPS30;69233;51.968;5.658;2023-05-29T12:24:04;3.8;3.7;3.5;3.1;;;;1.0;228.0;
79749;SPS30;69233;51.968;5.658;2023-05-29T12:26:34;4.8;4.7;4.4;3.9;;;;1.0;223.0;
79749;SPS30;69233;51.968;5.658;2023-05-29T12:29:04;4.5;4.4;4.1;3.6;;;;1.0;224.0;
79749;SPS30;69233;51.968;5.658;2023-05-29T12:31:34;4.5;4.4;4.2;3.7;;;;1.0;228.0;
79749;SPS30;69233;51.968;5.658;2023-05-29T12:34:10;4.4;4.3;4.2;3.7;;;;1.0;211.0;